Time;durP1;ratioP1;P1;durP2;ratioP2;P2;SDS_P1;SDS_P2;PMS_P1;PMS_P2;Temp;Humidity;BMP_temperature;BMP_pressure;BME280_temperature;BME280_humidity;BME280_pressure;Samples;Min_cycle;Max_cycle;Signal;HPM_P1;HPM_P2
2022/01/23 00:01:07;;;;;;;40.20;26.70;;;9.70;99.90;;;;;;5051726;28;20400;-69
2022/01/23 00:03:33;;;;;;;39.50;25.77;;;9.70;99.90;;;;;;5033669;28;20417;-69
2022/01/23 00:05:59;;;;;;;35.50;24.80;;;9.60;99.90;;;;;;5024120;28;20505;-69
2022/01/23 00:08:25;;;;;;;40.30;26.00;;;9.60;99.90;;;;;;5017302;28;20262;-69
2022/01/23 00:10:52;;;;;;;41.00;27.47;;;9.60;99.90;;;;;;5032962;28;21005;-79
2022/01/23 00:13:32;;;;;;;34.97;24.47;;;9.60;99.90;;;;;;5015559;28;20429;-69
2022/01/23 00:18:42;;;;;;;40.77;26.30;;;9.50;99.90;;;;;;5033223;28;20409;-69
2022/01/23 00:21:08;;;;;;;39.93;26.80;;;9.50;99.90;;;;;;5031962;28;20465;-69
2022/01/23 00:31:37;;;;;;;36.57;23.90;;;9.50;99.90;;;;;;5032574;28;20389;-69
2022/01/23 00:34:03;;;;;;;36.00;23.93;;;9.40;99.90;;;;;;5019785;28;20509;-69
2022/01/23 00:36:29;;;;;;;40.03;24.13;;;9.40;99.90;;;;;;5052260;28;20421;-69
2022/01/23 00:38:56;;;;;;;36.93;24.67;;;9.50;99.90;;;;;;5051841;28;20319;-77
2022/01/23 00:41:23;;;;;;;35.10;24.80;;;9.50;99.90;;;;;;5034374;28;20425;-68
2022/01/23 00:43:50;;;;;;;40.00;24.50;;;9.50;99.90;;;;;;5014317;28;20421;-69
2022/01/23 00:51:30;;;;;;;35.67;24.93;;;9.50;99.90;;;;;;5017919;28;20427;-70
2022/01/23 00:53:57;;;;;;;36.57;24.17;;;9.50;99.90;;;;;;5042845;28;20436;-69
2022/01/23 00:56:23;;;;;;;65.13;38.03;;;9.50;99.90;;;;;;5035055;28;20503;-77
2022/01/23 00:58:49;;;;;;;133.13;78.00;;;9.50;99.90;;;;;;5052338;28;20510;-69
2022/01/23 01:01:15;;;;;;;41.30;27.63;;;9.50;99.90;;;;;;5052227;28;20495;-69
2022/01/23 01:03:41;;;;;;;38.27;25.90;;;9.50;99.90;;;;;;5051422;28;20174;-69
2022/01/23 01:06:07;;;;;;;42.43;26.20;;;9.50;99.90;;;;;;5051617;28;20891;-69
2022/01/23 01:08:33;;;;;;;38.93;25.87;;;9.40;99.90;;;;;;5052944;28;20393;-69
2022/01/23 01:35:16;;;;;;;35.37;24.13;;;9.40;99.90;;;;;;5017512;28;20427;-69
2022/01/23 01:37:42;;;;;;;31.90;20.87;;;9.40;99.90;;;;;;5052396;28;20466;-69
2022/01/23 01:40:08;;;;;;;32.53;21.53;;;9.40;99.90;;;;;;5034097;28;20408;-69
2022/01/23 01:42:34;;;;;;;29.90;20.33;;;9.40;99.90;;;;;;5052711;28;20248;-69
2022/01/23 01:45:00;;;;;;;30.43;21.17;;;9.40;99.90;;;;;;5033222;28;20426;-69
2022/01/23 01:47:25;;;;;;;30.53;20.40;;;9.40;99.90;;;;;;5052543;28;20533;-69
2022/01/23 01:49:51;;;;;;;25.73;19.03;;;9.60;99.90;;;;;;5024445;28;20217;-69
2022/01/23 01:52:17;;;;;;;26.63;18.67;;;9.40;99.90;;;;;;5031714;28;20193;-69
2022/01/23 01:54:43;;;;;;;25.90;18.47;;;9.30;99.90;;;;;;5014661;28;20233;-69
2022/01/23 01:57:10;;;;;;;25.23;18.13;;;9.40;99.90;;;;;;5031661;28;20174;-69
2022/01/23 02:10:26;;;;;;;26.43;18.37;;;9.30;99.90;;;;;;5034380;28;20415;-69
2022/01/23 02:18:25;;;;;;;25.50;18.70;;;9.30;99.90;;;;;;5033182;28;20795;-70
2022/01/23 02:50:57;;;;;;;22.93;15.60;;;9.20;99.90;;;;;;5075533;28;20477;-69
2022/01/23 02:54:19;;;;;;;24.63;16.23;;;9.10;99.90;;;;;;5074599;28;20400;-69
2022/01/23 02:56:20;;;;;;;23.57;15.73;;;9.10;99.90;;;;;;5068211;28;20478;-69
2022/01/23 02:58:57;;;;;;;19.60;15.60;;;9.10;99.90;;;;;;5075319;28;20416;-69
2022/01/23 03:01:27;;;;;;;22.03;16.40;;;9.10;99.90;;;;;;5074915;28;20438;-69
2022/01/23 03:03:59;;;;;;;22.57;15.20;;;9.10;99.90;;;;;;5075114;28;20404;-69
2022/01/23 03:09:52;;;;;;;24.50;16.70;;;9.20;99.90;;;;;;5042635;28;20817;-81
2022/01/23 03:25:43;;;;;;;25.20;18.27;;;9.10;99.90;;;;;;5033934;28;20404;-70
2022/01/23 03:33:27;;;;;;;25.30;19.47;;;9.10;99.90;;;;;;5034417;28;20759;-69
2022/01/23 03:35:53;;;;;;;25.30;17.70;;;9.20;99.90;;;;;;5015517;28;20433;-69
2022/01/23 03:38:19;;;;;;;30.83;21.20;;;9.20;99.90;;;;;;5016201;28;20639;-69
2022/01/23 03:40:45;;;;;;;23.77;16.57;;;9.10;99.90;;;;;;5033882;28;20626;-69
2022/01/23 03:43:13;;;;;;;25.60;17.60;;;9.10;99.90;;;;;;5035244;28;20175;-69
2022/01/23 03:50:47;;;;;;;21.90;17.33;;;9.10;99.90;;;;;;5054363;28;20432;-69
2022/01/23 03:53:14;;;;;;;25.07;17.53;;;9.10;99.90;;;;;;5053863;28;20483;-69
2022/01/23 03:55:40;;;;;;;23.60;16.50;;;9.10;99.90;;;;;;5036328;28;20432;-69
2022/01/23 03:58:06;;;;;;;22.90;16.30;;;9.10;99.90;;;;;;5036135;28;20427;-84
2022/01/23 04:00:33;;;;;;;24.20;16.93;;;9.20;99.90;;;;;;5054666;28;20404;-69
2022/01/23 04:02:59;;;;;;;23.07;16.03;;;9.20;99.90;;;;;;5054581;28;20174;-69
2022/01/23 04:05:25;;;;;;;23.17;16.83;;;9.20;99.90;;;;;;5035750;28;20518;-69
2022/01/23 04:07:51;;;;;;;23.57;17.30;;;9.20;99.90;;;;;;5032820;28;20420;-69
2022/01/23 04:10:19;;;;;;;22.00;16.10;;;9.20;99.90;;;;;;5032900;28;20425;-69
2022/01/23 04:12:59;;;;;;;22.80;15.60;;;9.20;99.90;;;;;;5015994;28;20635;-69
2022/01/23 04:15:35;;;;;;;25.17;17.50;;;9.20;99.90;;;;;;5015593;28;20463;-69
2022/01/23 04:21:02;;;;;;;22.23;16.57;;;9.20;99.90;;;;;;5033687;28;20759;-69
2022/01/23 04:32:06;;;;;;;25.63;16.80;;;9.20;99.90;;;;;;5015715;28;20897;-69
2022/01/23 05:04:24;;;;;;;22.73;15.60;;;9.10;99.90;;;;;;5014975;28;20455;-69
2022/01/23 05:07:05;;;;;;;22.60;15.77;;;9.10;99.90;;;;;;4999355;28;20472;-69
2022/01/23 05:09:31;;;;;;;22.07;17.33;;;9.20;99.90;;;;;;5032339;28;20406;-69
2022/01/23 05:12:00;;;;;;;24.10;17.40;;;9.10;99.90;;;;;;5033032;28;20587;-69
2022/01/23 05:14:34;;;;;;;21.53;16.37;;;9.10;99.90;;;;;;5014508;28;20417;-68
2022/01/23 05:17:02;;;;;;;21.10;15.87;;;9.10;99.90;;;;;;4998929;28;20428;-69
2022/01/23 05:19:28;;;;;;;22.47;15.60;;;9.10;99.90;;;;;;5032418;28;20425;-69
2022/01/23 05:24:40;;;;;;;24.43;16.80;;;9.10;99.90;;;;;;5016288;28;20452;-68
2022/01/23 05:27:10;;;;;;;23.67;16.23;;;9.10;99.90;;;;;;4998732;28;20626;-69
2022/01/23 05:29:36;;;;;;;24.77;17.27;;;9.10;99.90;;;;;;5017514;28;20932;-69
2022/01/23 05:32:04;;;;;;;22.93;17.03;;;9.10;99.90;;;;;;5052472;28;20835;-69
2022/01/23 05:34:30;;;;;;;18.53;14.40;;;9.10;99.90;;;;;;5033405;28;21111;-69
2022/01/23 05:36:57;;;;;;;20.30;15.20;;;9.10;99.90;;;;;;5052236;28;20416;-69
2022/01/23 05:39:25;;;;;;;19.47;14.57;;;9.00;99.90;;;;;;5051505;28;20417;-69
2022/01/23 05:41:57;;;;;;;20.73;15.47;;;9.00;99.90;;;;;;5051896;28;20459;-69
2022/01/23 05:44:23;;;;;;;24.50;16.17;;;9.00;99.90;;;;;;5051645;28;20453;-69
2022/01/23 05:46:49;;;;;;;23.53;16.67;;;9.00;99.90;;;;;;5017785;28;20442;-69
2022/01/23 05:49:15;;;;;;;24.60;16.33;;;9.00;99.90;;;;;;5034139;28;20433;-69
2022/01/23 05:51:41;;;;;;;19.97;15.87;;;9.00;99.90;;;;;;5017695;28;20587;-68
2022/01/23 05:54:07;;;;;;;22.23;15.60;;;8.90;99.90;;;;;;5050540;28;20450;-68
2022/01/23 05:56:32;;;;;;;24.30;15.93;;;8.90;99.90;;;;;;5034108;28;20420;-69
2022/01/23 05:58:58;;;;;;;24.93;16.40;;;8.90;99.90;;;;;;5054163;28;20626;-69
2022/01/23 06:01:24;;;;;;;23.20;15.70;;;8.90;99.90;;;;;;5055491;28;20705;-69
2022/01/23 06:03:50;;;;;;;21.80;15.30;;;8.90;99.90;;;;;;5035060;28;20187;-69
2022/01/23 06:06:15;;;;;;;23.73;15.47;;;8.90;99.90;;;;;;5017646;28;20202;-69
2022/01/23 06:08:42;;;;;;;21.50;15.43;;;8.90;99.90;;;;;;5036007;28;20178;-69
2022/01/23 06:11:08;;;;;;;22.40;14.90;;;8.90;99.90;;;;;;5037511;28;20166;-69
2022/01/23 06:13:34;;;;;;;21.30;15.47;;;8.90;99.90;;;;;;5035803;28;20416;-69
2022/01/23 06:16:00;;;;;;;22.67;14.60;;;9.00;99.90;;;;;;5036082;28;20178;-69
2022/01/23 06:18:26;;;;;;;19.20;13.93;;;8.90;99.90;;;;;;5000959;28;20514;-69
2022/01/23 06:20:52;;;;;;;19.10;14.10;;;8.90;99.90;;;;;;5040963;28;20532;-69
2022/01/23 06:23:18;;;;;;;22.10;14.47;;;8.90;99.90;;;;;;5054907;28;20900;-69
2022/01/23 06:25:46;;;;;;;20.27;15.10;;;9.00;99.90;;;;;;5055136;28;20533;-77
2022/01/23 06:28:29;;;;;;;21.03;14.10;;;8.90;99.90;;;;;;5047031;28;20462;-69
2022/01/23 06:30:55;;;;;;;22.77;14.70;;;9.00;99.90;;;;;;5035376;28;20413;-69
2022/01/23 06:33:21;;;;;;;19.40;14.23;;;9.00;99.90;;;;;;5034532;28;20429;-69
2022/01/23 06:35:46;;;;;;;22.30;14.37;;;9.00;99.90;;;;;;5035709;28;20185;-69
2022/01/23 06:38:12;;;;;;;24.23;15.10;;;9.00;99.90;;;;;;5035782;28;20183;-84
2022/01/23 06:40:38;;;;;;;20.43;13.70;;;9.00;99.90;;;;;;5037432;28;20630;-69
2022/01/23 06:43:04;;;;;;;24.13;17.47;;;9.00;99.90;;;;;;5055464;28;20647;-69
2022/01/23 06:45:29;;;;;;;22.23;15.53;;;9.10;99.90;;;;;;5054413;28;20463;-69
2022/01/23 06:47:55;;;;;;;24.50;16.90;;;9.00;99.90;;;;;;5037306;28;20236;-69
2022/01/23 06:50:21;;;;;;;27.53;16.67;;;9.00;99.90;;;;;;5038568;28;20190;-74
2022/01/23 06:52:46;;;;;;;26.93;17.40;;;9.10;99.90;;;;;;5044370;28;20182;-69
2022/01/23 06:55:12;;;;;;;25.80;17.07;;;9.20;99.90;;;;;;5053433;28;20261;-82
2022/01/23 06:57:38;;;;;;;22.90;16.13;;;9.10;99.90;;;;;;5033354;28;20177;-69
2022/01/23 07:00:06;;;;;;;23.00;16.40;;;9.10;99.90;;;;;;5034535;28;20890;-73
2022/01/23 07:02:32;;;;;;;25.90;16.10;;;9.10;99.90;;;;;;5033039;28;20225;-69
2022/01/23 07:04:58;;;;;;;25.27;17.80;;;9.20;99.90;;;;;;5037438;28;20453;-68
2022/01/23 07:07:23;;;;;;;26.33;16.80;;;9.20;99.90;;;;;;5027332;28;20476;-69
2022/01/23 07:09:49;;;;;;;24.37;16.90;;;9.20;99.90;;;;;;5034751;28;20178;-69
2022/01/23 07:12:15;;;;;;;22.63;16.50;;;9.20;99.90;;;;;;5034568;28;20206;-81
2022/01/23 07:14:40;;;;;;;22.93;15.67;;;9.20;99.90;;;;;;5017324;28;20229;-69
2022/01/23 07:17:06;;;;;;;23.30;16.17;;;9.20;99.90;;;;;;5052261;28;20189;-69
2022/01/23 07:19:32;;;;;;;21.23;15.67;;;9.20;99.90;;;;;;5044654;28;20182;-69
2022/01/23 07:21:58;;;;;;;21.57;15.37;;;9.20;99.90;;;;;;5047070;28;20252;-69
2022/01/23 07:24:24;;;;;;;24.77;16.60;;;9.10;99.90;;;;;;5053900;28;20205;-69
2022/01/23 07:26:49;;;;;;;23.23;15.90;;;9.10;99.90;;;;;;5036816;28;20209;-69
2022/01/23 07:29:17;;;;;;;22.03;15.20;;;9.20;99.90;;;;;;5019776;28;20935;-82
2022/01/23 07:31:56;;;;;;;23.43;15.60;;;9.10;99.90;;;;;;5020450;28;20196;-69
2022/01/23 07:34:21;;;;;;;21.87;14.60;;;9.20;99.90;;;;;;5035936;28;20404;-69
2022/01/23 07:36:47;;;;;;;23.00;16.13;;;9.10;99.90;;;;;;5052777;28;20924;-69
2022/01/23 07:39:13;;;;;;;25.17;16.50;;;9.10;99.90;;;;;;5016908;28;20182;-69
2022/01/23 07:41:39;;;;;;;21.70;15.60;;;9.10;99.90;;;;;;5034090;28;20181;-69
2022/01/23 07:44:05;;;;;;;22.20;16.17;;;9.00;99.90;;;;;;5034487;28;20178;-69
2022/01/23 07:46:31;;;;;;;20.03;15.43;;;9.00;99.90;;;;;;5035066;28;20679;-68
2022/01/23 07:48:57;;;;;;;22.63;15.57;;;9.10;99.90;;;;;;5050540;28;20503;-70
2022/01/23 07:51:23;;;;;;;24.97;16.77;;;9.10;99.90;;;;;;5052204;28;20444;-69
2022/01/23 07:53:49;;;;;;;21.83;15.00;;;9.10;99.90;;;;;;5053677;28;20231;-68
2022/01/23 07:56:15;;;;;;;20.30;15.67;;;9.10;99.90;;;;;;5053971;28;20424;-68
2022/01/23 07:58:40;;;;;;;25.83;15.07;;;9.10;99.90;;;;;;5041287;28;20175;-68
2022/01/23 08:01:06;;;;;;;25.13;16.00;;;9.10;99.90;;;;;;5033519;28;20424;-68
2022/01/23 08:03:32;;;;;;;23.17;15.20;;;9.10;99.90;;;;;;5015632;28;20173;-69
2022/01/23 08:05:58;;;;;;;22.20;14.50;;;9.10;99.90;;;;;;4999699;28;20205;-68
2022/01/23 08:08:23;;;;;;;21.03;14.60;;;9.10;99.90;;;;;;5032857;28;20221;-69
2022/01/23 08:10:49;;;;;;;22.37;15.73;;;9.10;99.90;;;;;;4999820;28;20186;-68
2022/01/23 08:13:15;;;;;;;24.27;15.83;;;9.10;99.90;;;;;;5038270;28;20193;-68
2022/01/23 08:15:41;;;;;;;22.77;15.63;;;9.10;99.90;;;;;;5015441;28;20272;-68
2022/01/23 08:18:08;;;;;;;20.90;14.73;;;9.10;99.90;;;;;;5015733;28;20207;-72
2022/01/23 08:20:34;;;;;;;22.17;15.47;;;9.10;99.90;;;;;;5042552;28;20417;-72
2022/01/23 08:23:02;;;;;;;21.93;16.07;;;9.40;99.90;;;;;;5035777;28;20434;-74
2022/01/23 08:25:32;;;;;;;20.20;16.20;;;9.90;99.90;;;;;;5015063;28;20462;-72
2022/01/23 08:27:58;;;;;;;21.67;16.63;;;10.40;99.90;;;;;;5033089;28;20439;-72
2022/01/23 08:30:25;;;;;;;22.93;17.00;;;10.80;99.90;;;;;;5032538;28;20421;-72
2022/01/23 08:32:51;;;;;;;22.90;16.97;;;11.30;99.90;;;;;;5033698;28;20578;-72
2022/01/23 08:35:17;;;;;;;22.17;17.10;;;11.70;99.90;;;;;;5033237;28;20507;-72
2022/01/23 08:37:43;;;;;;;20.17;15.27;;;12.00;99.90;;;;;;5048096;28;20928;-72
2022/01/23 08:40:23;;;;;;;21.57;16.90;;;12.30;99.90;;;;;;5015710;28;20428;-72
2022/01/23 08:42:52;;;;;;;20.63;15.17;;;12.60;99.90;;;;;;5033082;28;20436;-72
2022/01/23 08:45:19;;;;;;;19.07;14.90;;;12.80;99.90;;;;;;5015014;28;20417;-83
2022/01/23 08:47:45;;;;;;;20.67;15.73;;;13.00;99.90;;;;;;5033024;28;20906;-72
2022/01/23 08:50:10;;;;;;;21.53;16.60;;;13.20;99.90;;;;;;5033023;28;20420;-72
2022/01/23 08:52:36;;;;;;;22.07;17.07;;;13.30;99.60;;;;;;5020219;28;20188;-72
2022/01/23 08:55:02;;;;;;;21.03;17.50;;;13.40;99.30;;;;;;5033763;28;20197;-72
2022/01/23 08:57:29;;;;;;;21.00;17.67;;;13.60;98.70;;;;;;5031969;28;20412;-73
2022/01/23 08:59:55;;;;;;;24.50;18.90;;;13.70;98.50;;;;;;5035554;28;20426;-72
2022/01/23 09:02:21;;;;;;;25.13;19.67;;;13.70;97.60;;;;;;5050535;28;20787;-72
2022/01/23 09:04:47;;;;;;;21.93;18.30;;;13.80;97.30;;;;;;5050983;28;20206;-72
2022/01/23 09:07:13;;;;;;;21.07;18.00;;;13.90;97.10;;;;;;5044578;28;20205;-68
2022/01/23 09:09:40;;;;;;;26.13;18.73;;;13.90;96.30;;;;;;5014170;28;20743;-69
2022/01/23 09:12:41;;;;;;;25.60;21.60;;;13.80;95.20;;;;;;5032292;28;20427;-68
2022/01/23 09:15:07;;;;;;;24.10;19.03;;;13.50;94.70;;;;;;5041454;28;20425;-68
2022/01/23 09:17:33;;;;;;;22.93;18.30;;;13.00;95.50;;;;;;5031947;28;20428;-69
2022/01/23 09:19:59;;;;;;;27.73;21.00;;;12.70;96.30;;;;;;5020386;28;20475;-69
2022/01/23 09:22:28;;;;;;;27.73;21.37;;;12.30;97.10;;;;;;5033364;28;20978;-69
2022/01/23 09:24:55;;;;;;;27.07;20.87;;;12.00;97.80;;;;;;5037477;28;20440;-70
2022/01/23 09:27:20;;;;;;;23.70;19.07;;;11.70;98.40;;;;;;5026507;28;20950;-80
2022/01/23 09:29:50;;;;;;;27.17;20.63;;;11.50;99.10;;;;;;5038712;28;20422;-69
2022/01/23 09:32:18;;;;;;;26.57;20.47;;;11.30;99.90;;;;;;5022110;28;20190;-69
2022/01/23 09:34:44;;;;;;;31.00;21.97;;;11.10;99.90;;;;;;5035223;28;20422;-69
2022/01/23 09:37:14;;;;;;;29.63;20.00;;;10.90;99.90;;;;;;5035663;28;20469;-71
2022/01/23 09:39:45;;;;;;;29.17;19.93;;;10.70;99.90;;;;;;5036531;28;20438;-68
2022/01/23 09:42:16;;;;;;;25.80;18.73;;;10.60;99.90;;;;;;5049447;28;20746;-68
2022/01/23 09:44:47;;;;;;;31.43;22.40;;;10.50;99.90;;;;;;5030732;28;20421;-68
2022/01/23 09:47:16;;;;;;;29.63;19.07;;;10.40;99.90;;;;;;5036042;28;20507;-68
2022/01/23 09:49:44;;;;;;;26.93;18.97;;;10.30;99.90;;;;;;5036166;28;20427;-69
2022/01/23 09:52:12;;;;;;;30.20;20.27;;;10.20;99.90;;;;;;5036137;28;20516;-69
2022/01/23 09:54:40;;;;;;;34.70;21.50;;;10.20;99.90;;;;;;5018160;28;20419;-68
2022/01/23 09:57:08;;;;;;;36.70;22.77;;;10.10;99.90;;;;;;5036297;28;20419;-68
2022/01/23 09:59:34;;;;;;;31.83;20.63;;;10.10;99.90;;;;;;5035514;28;20461;-69
2022/01/23 10:02:03;;;;;;;29.60;18.93;;;10.10;99.90;;;;;;5038329;28;20932;-70
2022/01/23 10:04:30;;;;;;;27.67;19.00;;;10.10;99.90;;;;;;5055109;28;20475;-68
2022/01/23 10:06:56;;;;;;;27.63;18.37;;;10.10;99.90;;;;;;5037664;28;20492;-69
2022/01/23 10:09:24;;;;;;;30.20;20.60;;;10.10;99.90;;;;;;5035481;28;20424;-87
2022/01/23 10:11:50;;;;;;;29.27;19.43;;;10.10;99.90;;;;;;5041657;28;20433;-69
2022/01/23 10:14:18;;;;;;;33.20;19.70;;;10.10;99.90;;;;;;5035571;28;20848;-68
2022/01/23 10:16:46;;;;;;;28.93;18.63;;;10.10;99.90;;;;;;5047727;28;20461;-68
2022/01/23 10:19:13;;;;;;;29.80;20.00;;;10.10;99.90;;;;;;5055524;28;20895;-68
2022/01/23 10:21:39;;;;;;;29.90;18.30;;;10.10;99.90;;;;;;5055556;28;20920;-69
2022/01/23 10:24:09;;;;;;;33.53;20.10;;;10.10;99.90;;;;;;5055696;28;20909;-69
2022/01/23 10:26:53;;;;;;;28.30;18.90;;;10.00;99.90;;;;;;5055869;28;20488;-69
2022/01/23 10:29:29;;;;;;;35.23;19.40;;;10.00;99.90;;;;;;5056319;28;20418;-69
2022/01/23 10:32:18;;;;;;;28.43;18.20;;;10.00;99.90;;;;;;5054047;28;20424;-69
2022/01/23 10:34:57;;;;;;;25.20;18.10;;;10.10;99.90;;;;;;5048276;28;20457;-70
2022/01/23 10:37:39;;;;;;;26.50;19.30;;;10.00;99.90;;;;;;5046821;28;20749;-69
2022/01/23 10:40:11;;;;;;;32.83;19.00;;;10.00;99.90;;;;;;5041157;28;20434;-69
2022/01/23 10:48:24;;;;;;;24.00;17.90;;;10.00;99.90;;;;;;5034927;28;20442;-70
2022/01/23 10:51:26;;;;;;;27.37;17.90;;;10.10;99.90;;;;;;5034664;28;20433;-69
2022/01/23 10:54:03;;;;;;;28.30;18.13;;;10.10;99.90;;;;;;5017925;28;20929;-68
2022/01/23 10:56:49;;;;;;;444.23;258.67;;;10.00;99.90;;;;;;5000617;28;20440;-68
2022/01/23 10:59:15;;;;;;;292.23;146.90;;;10.10;99.90;;;;;;5050349;28;20457;-68
2022/01/23 11:02:00;;;;;;;49.67;31.70;;;10.10;99.90;;;;;;5055363;28;20772;-68
2022/01/23 11:04:27;;;;;;;37.67;19.10;;;10.00;99.90;;;;;;5055001;28;20535;-69
2022/01/23 11:06:54;;;;;;;25.83;17.67;;;10.10;99.90;;;;;;5037425;28;20488;-70
2022/01/23 11:09:31;;;;;;;24.97;16.93;;;10.10;99.90;;;;;;5054557;28;20421;-69
2022/01/23 11:12:03;;;;;;;27.50;18.63;;;10.10;99.90;;;;;;5054813;28;20409;-68
2022/01/23 11:17:51;;;;;;;28.50;19.20;;;10.10;99.90;;;;;;4993048;28;20531;-69
2022/01/23 11:20:36;;;;;;;22.80;16.53;;;10.10;99.90;;;;;;5030108;28;20435;-68
2022/01/23 11:23:23;;;;;;;26.50;18.13;;;10.10;99.90;;;;;;5054878;28;20422;-68
2022/01/23 11:25:51;;;;;;;22.60;17.50;;;10.10;99.90;;;;;;5054799;28;20502;-68
2022/01/23 11:28:18;;;;;;;26.50;17.50;;;10.00;99.90;;;;;;5035449;28;20921;-69
2022/01/23 11:30:46;;;;;;;24.20;18.70;;;10.00;99.90;;;;;;5036053;28;20845;-69
2022/01/23 11:33:17;;;;;;;25.20;17.20;;;10.00;99.90;;;;;;5042598;28;20481;-68
2022/01/23 11:35:43;;;;;;;23.87;17.20;;;10.00;99.90;;;;;;5047196;28;20474;-68
2022/01/23 11:38:13;;;;;;;22.47;16.50;;;10.00;99.90;;;;;;5034813;28;20406;-68
2022/01/23 11:54:05;;;;;;;233.73;139.80;;;10.10;99.90;;;;;;5034127;28;20425;-68
2022/01/23 11:56:50;;;;;;;69.67;40.57;;;10.10;99.90;;;;;;5032943;28;20443;-69
2022/01/23 11:59:29;;;;;;;37.53;26.87;;;10.10;99.90;;;;;;5016687;28;20404;-68
2022/01/23 12:02:15;;;;;;;22.40;15.30;;;10.10;99.90;;;;;;5000543;28;20813;-68
2022/01/23 12:05:10;;;;;;;22.47;15.40;;;10.20;99.90;;;;;;5017129;28;20786;-68
2022/01/23 12:07:36;;;;;;;23.00;16.80;;;10.20;99.90;;;;;;5034153;28;20476;-68
2022/01/23 12:10:30;;;;;;;22.30;16.07;;;10.20;99.90;;;;;;5024901;28;20416;-68
2022/01/23 12:16:27;;;;;;;21.70;15.00;;;10.20;99.90;;;;;;4953660;29;20435;-68
2022/01/23 12:19:16;;;;;;;22.33;15.40;;;10.20;99.90;;;;;;4953134;29;20418;-68
2022/01/23 12:21:42;;;;;;;23.07;16.30;;;10.20;99.90;;;;;;5051652;28;20801;-69
2022/01/23 12:24:09;;;;;;;22.73;15.40;;;10.20;99.90;;;;;;5073840;28;20445;-68
2022/01/23 12:26:35;;;;;;;25.53;17.50;;;10.20;99.90;;;;;;5071869;28;20515;-69
2022/01/23 12:29:23;;;;;;;20.00;14.47;;;10.20;99.90;;;;;;5073821;28;20450;-68
2022/01/23 12:32:10;;;;;;;20.43;14.70;;;10.20;99.90;;;;;;5073117;28;20424;-68
2022/01/23 12:34:49;;;;;;;19.73;15.07;;;10.20;99.90;;;;;;5054773;28;20422;-69
2022/01/23 12:37:15;;;;;;;21.37;15.37;;;10.20;99.90;;;;;;5061748;28;20516;-71
2022/01/23 12:39:41;;;;;;;18.20;12.30;;;10.20;99.90;;;;;;5054099;28;20497;-71
2022/01/23 12:42:06;;;;;;;17.90;13.87;;;10.20;99.90;;;;;;5057765;28;20428;-70
2022/01/23 12:44:35;;;;;;;22.10;15.50;;;10.20;99.90;;;;;;5068947;28;20241;-73
2022/01/23 12:47:03;;;;;;;21.60;14.80;;;10.20;99.90;;;;;;5072418;28;20251;-71
2022/01/23 12:49:33;;;;;;;21.67;14.50;;;10.20;99.90;;;;;;5062489;28;20443;-70
2022/01/23 12:52:05;;;;;;;338.47;176.47;;;10.20;99.90;;;;;;5050678;28;20450;-70
2022/01/23 12:54:47;;;;;;;135.50;79.13;;;10.20;99.90;;;;;;5055103;28;20438;-74
2022/01/23 12:57:19;;;;;;;25.33;18.17;;;10.20;99.90;;;;;;5051640;28;20749;-72
2022/01/23 12:59:53;;;;;;;13.77;10.97;;;10.20;99.90;;;;;;5058703;28;20460;-72
2022/01/23 13:02:21;;;;;;;14.03;10.30;;;10.20;99.60;;;;;;5051103;28;20460;-70
2022/01/23 13:04:52;;;;;;;15.67;11.53;;;10.10;98.80;;;;;;5050022;28;20440;-70
2022/01/23 13:07:42;;;;;;;11.90;10.13;;;10.10;98.90;;;;;;5050081;28;20470;-70
2022/01/23 13:10:28;;;;;;;15.67;11.20;;;10.10;98.20;;;;;;5068814;28;20934;-70
2022/01/23 13:13:06;;;;;;;16.63;13.67;;;10.10;99.10;;;;;;5070065;28;20556;-70
2022/01/23 13:18:15;;;;;;;18.00;13.53;;;10.10;99.90;;;;;;5051785;28;20505;-71
2022/01/23 13:32:13;;;;;;;18.37;13.10;;;10.00;99.90;;;;;;5014120;28;20417;-71
2022/01/23 13:34:51;;;;;;;17.37;12.13;;;10.00;99.90;;;;;;5049989;28;20463;-71
2022/01/23 13:37:22;;;;;;;16.20;12.40;;;10.00;99.90;;;;;;5043367;28;20428;-71
2022/01/23 13:40:03;;;;;;;15.20;12.20;;;10.00;99.90;;;;;;5041387;28;21015;-71
2022/01/23 13:59:26;;;;;;;13.20;10.37;;;9.90;99.90;;;;;;5037034;28;20420;-71
2022/01/23 14:04:34;;;;;;;12.50;10.27;;;10.00;99.90;;;;;;5031541;28;20415;-70
2022/01/23 14:07:00;;;;;;;14.40;10.80;;;10.00;99.90;;;;;;5033529;28;20638;-68
2022/01/23 14:09:26;;;;;;;13.50;10.60;;;10.00;99.90;;;;;;5051658;28;20511;-67
2022/01/23 14:11:53;;;;;;;13.40;10.70;;;10.00;99.90;;;;;;5037122;28;20426;-67
2022/01/23 14:14:22;;;;;;;950.87;525.90;;;10.10;99.90;;;;;;5014638;28;20426;-68
2022/01/23 14:16:51;;;;;;;257.57;145.03;;;10.10;99.90;;;;;;5013240;28;20435;-68
2022/01/23 14:19:28;;;;;;;30.77;21.43;;;10.10;99.90;;;;;;5037614;28;20472;-69
2022/01/23 14:22:00;;;;;;;13.57;10.70;;;10.10;99.90;;;;;;5034253;28;20467;-68
2022/01/23 14:24:34;;;;;;;14.07;11.40;;;10.10;99.00;;;;;;5000023;28;20409;-68
2022/01/23 14:26:59;;;;;;;11.97;10.03;;;10.10;99.00;;;;;;5034493;28;20467;-71
2022/01/23 14:29:30;;;;;;;14.27;10.90;;;10.10;99.90;;;;;;5048694;28;20428;-67
2022/01/23 14:32:19;;;;;;;12.57;9.23;;;10.10;99.90;;;;;;5010414;28;20315;-69
2022/01/23 14:34:45;;;;;;;12.43;9.80;;;10.10;99.90;;;;;;5028474;28;20489;-67
2022/01/23 14:37:11;;;;;;;16.67;11.07;;;10.10;99.90;;;;;;5055488;28;20528;-68
2022/01/23 14:39:38;;;;;;;13.43;9.93;;;10.10;99.90;;;;;;5005111;28;20433;-84
2022/01/23 14:42:18;;;;;;;11.73;10.10;;;10.10;99.90;;;;;;5055674;28;20495;-68
2022/01/23 14:44:45;;;;;;;14.60;9.80;;;10.10;99.90;;;;;;5037983;28;20433;-69
2022/01/23 14:47:11;;;;;;;12.73;10.20;;;10.10;99.90;;;;;;5055496;28;20827;-69
2022/01/23 14:49:39;;;;;;;12.47;10.27;;;10.00;99.90;;;;;;5055690;28;20500;-89
2022/01/23 14:52:10;;;;;;;13.70;10.80;;;10.10;99.90;;;;;;5055775;28;20919;-68
2022/01/23 14:54:37;;;;;;;12.90;10.87;;;10.10;99.90;;;;;;5005700;28;20425;-68
2022/01/23 14:57:05;;;;;;;12.87;9.90;;;10.00;99.90;;;;;;5055952;28;20490;-69
2022/01/23 14:59:33;;;;;;;13.30;10.90;;;10.00;99.90;;;;;;5055065;28;20426;-69
2022/01/23 15:02:00;;;;;;;13.30;9.87;;;10.00;99.90;;;;;;5036846;28;20416;-69
2022/01/23 15:04:26;;;;;;;12.47;10.20;;;10.00;99.90;;;;;;5055124;28;20412;-69
2022/01/23 15:06:52;;;;;;;16.03;10.60;;;10.10;99.90;;;;;;5054972;28;20930;-67
2022/01/23 15:09:20;;;;;;;12.60;10.37;;;10.00;99.90;;;;;;5055473;28;20535;-68
2022/01/23 15:11:47;;;;;;;14.60;10.60;;;10.00;99.90;;;;;;5055294;28;20448;-70
2022/01/23 15:14:12;;;;;;;12.97;10.03;;;10.00;99.90;;;;;;5055037;28;20412;-68
2022/01/23 15:16:40;;;;;;;12.17;9.70;;;9.90;99.90;;;;;;5025491;28;20787;-76
2022/01/23 15:19:08;;;;;;;9.67;8.20;;;10.00;99.90;;;;;;5017179;28;20574;-69
2022/01/23 15:21:34;;;;;;;9.00;7.50;;;9.90;99.90;;;;;;5016197;28;20556;-67
2022/01/23 15:24:00;;;;;;;13.30;10.07;;;9.90;99.90;;;;;;5052361;28;20424;-69
2022/01/23 15:26:30;;;;;;;11.90;9.37;;;9.90;99.90;;;;;;5052520;28;20531;-70
2022/01/23 15:28:56;;;;;;;13.50;9.67;;;9.90;99.90;;;;;;5053288;28;20746;-69
2022/01/23 15:31:23;;;;;;;12.73;9.30;;;9.90;99.90;;;;;;5052671;28;20426;-68
2022/01/23 15:33:49;;;;;;;12.03;9.27;;;9.90;99.90;;;;;;5053167;28;20764;-68
2022/01/23 15:36:14;;;;;;;9.60;7.87;;;9.90;99.90;;;;;;5054132;28;20424;-68
2022/01/23 15:38:44;;;;;;;11.10;8.90;;;9.90;99.90;;;;;;5053791;28;20417;-76
2022/01/23 15:41:11;;;;;;;14.30;9.50;;;9.90;99.90;;;;;;5055832;28;20179;-68
2022/01/23 15:43:37;;;;;;;10.70;8.80;;;9.90;99.90;;;;;;5053992;28;20772;-68
2022/01/23 15:46:04;;;;;;;11.93;9.20;;;9.90;99.90;;;;;;5064885;28;20460;-68
2022/01/23 15:48:30;;;;;;;25.17;19.20;;;10.00;99.90;;;;;;5064460;28;20574;-68
2022/01/23 15:51:00;;;;;;;42.53;26.27;;;10.00;99.90;;;;;;5052812;28;20413;-71
2022/01/23 15:53:26;;;;;;;147.27;90.40;;;10.00;99.90;;;;;;5055687;28;20761;-68
2022/01/23 15:55:52;;;;;;;126.57;79.70;;;10.00;99.90;;;;;;5066165;28;20432;-69
2022/01/23 15:58:18;;;;;;;29.97;19.00;;;10.00;99.90;;;;;;5058292;28;20943;-68
2022/01/23 16:00:44;;;;;;;11.73;9.77;;;10.20;99.90;;;;;;5061018;28;20421;-79
2022/01/23 16:03:09;;;;;;;11.97;10.20;;;10.00;99.90;;;;;;5058252;28;20426;-68
2022/01/23 16:05:35;;;;;;;13.57;10.37;;;10.00;99.90;;;;;;5069121;28;20168;-68
2022/01/23 16:08:02;;;;;;;13.37;11.17;;;10.00;99.90;;;;;;5066906;28;21038;-68
2022/01/23 16:10:27;;;;;;;14.40;12.30;;;9.90;99.90;;;;;;5058759;28;20436;-68
2022/01/23 16:12:54;;;;;;;18.33;12.13;;;9.90;99.90;;;;;;5070887;28;20416;-69
2022/01/23 16:15:21;;;;;;;13.80;12.23;;;9.90;99.90;;;;;;5055219;28;20213;-68
2022/01/23 16:17:48;;;;;;;17.37;12.67;;;9.90;99.90;;;;;;5071171;28;20408;-69
2022/01/23 16:20:15;;;;;;;16.40;12.63;;;9.90;99.90;;;;;;5069494;28;20943;-68